Time;durP1;ratioP1;P1;durP2;ratioP2;P2;SDS_P1;SDS_P2;PMS_P1;PMS_P2;Temp;Humidity;BMP_temperature;BMP_pressure;BME280_temperature;BME280_humidity;BME280_pressure;Samples;Min_cycle;Max_cycle;Signal;HPM_P1;HPM_P2
2023/09/14 00:00:56;;;;;;;11.30;6.90;;;16.50;99.90;;;;;;5088447;28;20534;-72
2023/09/14 00:03:22;;;;;;;9.00;7.57;;;16.40;99.90;;;;;;5088247;28;20556;-72
2023/09/14 00:05:49;;;;;;;11.20;7.90;;;16.30;99.90;;;;;;5069928;28;20196;-72
2023/09/14 00:08:16;;;;;;;11.77;8.00;;;16.30;99.90;;;;;;5088271;28;20209;-72
2023/09/14 00:10:42;;;;;;;11.10;7.73;;;16.30;99.90;;;;;;5088298;28;20422;-73
2023/09/14 00:13:09;;;;;;;12.20;8.27;;;16.30;99.90;;;;;;5088106;28;20442;-72
2023/09/14 00:15:35;;;;;;;10.03;7.53;;;16.20;99.90;;;;;;5088570;28;20430;-72
2023/09/14 00:18:01;;;;;;;8.70;7.63;;;16.30;99.90;;;;;;5088015;28;20499;-72
2023/09/14 00:20:30;;;;;;;12.80;7.30;;;16.30;99.90;;;;;;5088142;28;20455;-72
2023/09/14 00:22:57;;;;;;;18.87;8.07;;;16.30;99.90;;;;;;5088009;28;20189;-72
2023/09/14 00:25:23;;;;;;;10.83;7.83;;;16.20;99.90;;;;;;5088024;28;20422;-72
2023/09/14 00:27:51;;;;;;;10.67;8.27;;;16.20;99.90;;;;;;5069987;28;20514;-72
2023/09/14 00:30:19;;;;;;;13.77;8.23;;;16.20;99.90;;;;;;5087912;28;20418;-72
2023/09/14 00:32:47;;;;;;;9.60;7.30;;;16.20;99.90;;;;;;5088459;28;20917;-72
2023/09/14 00:35:13;;;;;;;12.07;8.90;;;16.30;99.90;;;;;;5070087;28;20946;-72
2023/09/14 00:37:40;;;;;;;12.40;7.93;;;16.40;99.90;;;;;;5088569;28;20463;-72
2023/09/14 00:40:08;;;;;;;17.50;8.37;;;16.40;99.90;;;;;;5088528;28;20461;-72
2023/09/14 00:42:41;;;;;;;11.43;7.83;;;16.40;99.90;;;;;;5088751;28;20961;-72
2023/09/14 00:45:12;;;;;;;9.30;7.50;;;16.50;99.90;;;;;;5088798;28;20409;-72
2023/09/14 00:47:43;;;;;;;10.57;8.00;;;16.50;99.90;;;;;;5070595;28;20425;-72
2023/09/14 00:50:10;;;;;;;11.47;8.53;;;16.50;99.90;;;;;;5089004;28;20438;-72
2023/09/14 00:52:37;;;;;;;10.97;8.63;;;16.60;99.90;;;;;;5088669;28;20527;-72
2023/09/14 00:55:05;;;;;;;10.23;7.23;;;16.70;99.90;;;;;;5088862;28;20800;-73
2023/09/14 00:57:32;;;;;;;10.87;7.70;;;16.70;99.90;;;;;;5088756;28;20543;-72
2023/09/14 00:59:58;;;;;;;10.30;7.07;;;16.70;99.90;;;;;;5088914;28;20419;-72
2023/09/14 01:02:25;;;;;;;11.47;8.60;;;16.70;99.90;;;;;;5070659;28;20411;-72
2023/09/14 01:04:52;;;;;;;10.70;7.07;;;16.80;99.90;;;;;;5091130;28;20509;-72
2023/09/14 01:07:18;;;;;;;10.27;7.83;;;16.80;99.90;;;;;;5092426;28;20454;-73
2023/09/14 01:09:44;;;;;;;12.10;7.80;;;16.80;99.90;;;;;;5057081;28;20416;-72
2023/09/14 01:12:10;;;;;;;12.47;8.40;;;16.80;99.90;;;;;;5073628;28;20473;-72
2023/09/14 01:14:43;;;;;;;14.07;9.37;;;16.80;99.90;;;;;;5091592;28;20303;-72
2023/09/14 01:17:16;;;;;;;16.27;9.77;;;16.80;99.90;;;;;;5091464;28;21006;-72
2023/09/14 01:19:41;;;;;;;13.37;8.90;;;16.90;99.90;;;;;;5091405;28;20469;-72
2023/09/14 01:22:42;;;;;;;13.00;8.80;;;16.90;99.90;;;;;;5091332;28;20450;-73
2023/09/14 01:25:10;;;;;;;16.30;9.40;;;16.90;99.90;;;;;;5091472;28;20241;-72
2023/09/14 01:27:36;;;;;;;15.97;10.10;;;17.00;99.90;;;;;;5091373;28;20422;-73
2023/09/14 01:30:03;;;;;;;21.00;11.53;;;16.90;99.90;;;;;;5091334;28;20426;-73
2023/09/14 01:32:29;;;;;;;11.27;8.57;;;16.90;99.90;;;;;;5073302;28;20750;-73
2023/09/14 01:34:55;;;;;;;11.07;9.17;;;17.00;99.90;;;;;;5073046;28;20441;-73
2023/09/14 01:37:22;;;;;;;9.37;7.60;;;17.00;99.90;;;;;;5091050;28;21042;-73
2023/09/14 01:39:48;;;;;;;17.73;9.10;;;17.00;99.90;;;;;;5091198;28;20415;-73
2023/09/14 01:42:14;;;;;;;15.00;8.20;;;17.00;99.90;;;;;;5091183;28;20459;-73
2023/09/14 01:44:40;;;;;;;15.10;9.63;;;17.00;99.90;;;;;;5090870;28;20454;-73
2023/09/14 01:47:06;;;;;;;15.20;9.30;;;17.00;99.90;;;;;;5090824;28;20508;-73
2023/09/14 01:49:32;;;;;;;14.77;8.77;;;17.00;99.90;;;;;;5090885;28;20842;-73
2023/09/14 01:51:57;;;;;;;16.43;9.60;;;17.00;99.90;;;;;;5090632;28;20239;-73
2023/09/14 01:54:23;;;;;;;10.00;8.37;;;17.00;99.90;;;;;;5090763;28;20279;-72
2023/09/14 01:56:49;;;;;;;13.40;10.60;;;17.00;99.90;;;;;;5090749;28;20209;-72
2023/09/14 01:59:14;;;;;;;19.43;10.37;;;17.00;99.90;;;;;;5090937;28;20578;-73
2023/09/14 02:01:40;;;;;;;17.67;13.13;;;17.00;99.90;;;;;;5072695;28;20184;-73
2023/09/14 02:04:05;;;;;;;21.77;14.47;;;17.00;99.90;;;;;;5091048;28;20255;-73
2023/09/14 02:06:31;;;;;;;22.90;14.37;;;17.00;99.90;;;;;;5091051;28;20549;-72
2023/09/14 02:08:56;;;;;;;22.53;14.63;;;17.00;99.90;;;;;;5091217;28;20183;-72
2023/09/14 02:11:22;;;;;;;25.50;15.07;;;17.00;99.90;;;;;;5091220;28;20205;-72
2023/09/14 02:13:48;;;;;;;24.30;14.33;;;16.90;99.90;;;;;;5091059;28;20678;-72
2023/09/14 02:16:13;;;;;;;21.33;13.47;;;17.00;99.90;;;;;;5090837;28;20182;-72
2023/09/14 02:18:39;;;;;;;28.83;16.60;;;17.00;99.90;;;;;;5091138;28;20225;-72
2023/09/14 02:21:04;;;;;;;24.33;16.00;;;17.00;99.90;;;;;;5072793;28;20378;-72
2023/09/14 02:23:30;;;;;;;22.23;14.40;;;17.00;99.90;;;;;;5055927;28;20207;-73
2023/09/14 02:25:55;;;;;;;18.47;13.87;;;17.00;99.90;;;;;;5072858;28;20182;-73
2023/09/14 02:28:21;;;;;;;18.60;13.70;;;17.00;99.90;;;;;;5072307;28;20190;-73
2023/09/14 02:30:47;;;;;;;20.17;14.53;;;17.00;99.90;;;;;;5072437;28;20188;-73
2023/09/14 02:33:13;;;;;;;23.97;15.97;;;16.90;99.90;;;;;;5072079;28;20201;-72
2023/09/14 02:35:40;;;;;;;22.00;13.90;;;16.90;99.90;;;;;;5090389;28;20431;-72
2023/09/14 02:38:06;;;;;;;24.00;16.03;;;17.00;99.90;;;;;;5090180;28;20466;-72
2023/09/14 02:40:33;;;;;;;20.77;14.30;;;17.00;99.90;;;;;;5089926;28;20420;-72
2023/09/14 02:42:59;;;;;;;22.40;14.70;;;17.00;99.90;;;;;;5089658;28;20937;-73
2023/09/14 02:45:25;;;;;;;21.53;12.77;;;17.00;99.90;;;;;;5071608;28;20420;-73
2023/09/14 02:47:50;;;;;;;22.53;14.50;;;16.90;99.90;;;;;;5089675;28;20419;-73
2023/09/14 02:50:16;;;;;;;25.50;15.87;;;16.90;99.90;;;;;;5089692;28;20184;-73
2023/09/14 02:52:42;;;;;;;23.27;14.73;;;16.90;99.90;;;;;;5089362;28;20518;-72
2023/09/14 02:55:08;;;;;;;22.73;15.60;;;16.90;99.90;;;;;;5089701;28;20233;-72
2023/09/14 02:57:34;;;;;;;22.00;14.43;;;16.90;99.90;;;;;;5089441;28;20973;-72
2023/09/14 02:59:59;;;;;;;23.70;16.07;;;16.90;99.90;;;;;;5070986;28;20196;-72
2023/09/14 03:02:26;;;;;;;21.20;13.90;;;16.80;99.90;;;;;;5071295;28;20262;-72
2023/09/14 03:04:51;;;;;;;24.47;15.70;;;16.90;99.90;;;;;;5089156;28;20578;-72
2023/09/14 03:07:17;;;;;;;23.10;15.67;;;16.80;99.90;;;;;;5054281;28;20429;-72
2023/09/14 03:09:43;;;;;;;23.33;16.53;;;16.80;99.90;;;;;;5089279;28;20657;-72
2023/09/14 03:12:09;;;;;;;20.80;16.20;;;16.80;99.90;;;;;;5089310;28;20199;-72
2023/09/14 03:14:34;;;;;;;26.60;15.13;;;16.80;99.90;;;;;;5089079;28;20201;-72
2023/09/14 03:17:00;;;;;;;27.03;16.23;;;16.90;99.90;;;;;;5070477;28;20243;-72
2023/09/14 03:19:26;;;;;;;28.03;16.90;;;16.90;99.90;;;;;;5089057;28;20193;-72
2023/09/14 03:21:52;;;;;;;35.73;16.90;;;16.80;99.90;;;;;;5070556;28;20529;-73
2023/09/14 03:24:17;;;;;;;28.80;18.70;;;16.80;99.90;;;;;;5070386;28;20443;-72
2023/09/14 03:26:43;;;;;;;31.83;17.70;;;16.80;99.90;;;;;;5088078;28;20192;-72
2023/09/14 03:29:09;;;;;;;32.63;17.50;;;16.70;99.90;;;;;;5070188;28;20258;-72
2023/09/14 03:31:37;;;;;;;29.90;17.70;;;16.70;99.90;;;;;;5088664;28;20192;-72
2023/09/14 03:34:05;;;;;;;30.77;19.50;;;16.80;99.90;;;;;;5088634;28;20260;-73
2023/09/14 03:36:30;;;;;;;28.70;18.60;;;16.80;99.90;;;;;;5088520;28;20421;-72
2023/09/14 03:38:56;;;;;;;33.10;16.23;;;16.80;99.90;;;;;;5088640;28;20426;-72
2023/09/14 03:41:22;;;;;;;28.80;17.90;;;16.80;99.90;;;;;;5070379;28;20174;-72
2023/09/14 03:43:47;;;;;;;28.87;18.50;;;16.80;99.90;;;;;;5088627;28;20206;-72
2023/09/14 03:46:16;;;;;;;28.90;18.00;;;16.80;99.90;;;;;;5088853;28;20621;-72
2023/09/14 03:48:41;;;;;;;27.23;18.90;;;16.80;99.90;;;;;;5088455;28;20175;-72
2023/09/14 03:51:07;;;;;;;29.33;18.93;;;16.80;99.90;;;;;;5053182;28;20494;-72
2023/09/14 03:53:33;;;;;;;25.37;17.03;;;16.80;99.90;;;;;;5088309;28;20635;-72
2023/09/14 03:55:59;;;;;;;30.70;18.77;;;16.80;99.90;;;;;;5088733;28;20594;-72
2023/09/14 03:58:26;;;;;;;25.67;19.37;;;16.70;99.90;;;;;;5070234;28;20202;-73
2023/09/14 04:00:52;;;;;;;27.77;19.53;;;16.70;99.90;;;;;;5070253;28;20447;-72
2023/09/14 04:03:18;;;;;;;35.23;20.90;;;16.70;99.90;;;;;;5070452;28;20486;-73
2023/09/14 04:05:44;;;;;;;30.07;19.70;;;16.80;99.90;;;;;;5088452;28;20410;-72
2023/09/14 04:08:10;;;;;;;28.80;18.57;;;16.80;99.90;;;;;;5088464;28;20219;-72
2023/09/14 04:10:37;;;;;;;32.50;17.50;;;16.70;99.90;;;;;;5070268;28;20455;-72
2023/09/14 04:13:28;;;;;;;29.93;18.50;;;16.60;99.90;;;;;;5087361;28;20194;-73
2023/09/14 04:15:54;;;;;;;38.03;18.50;;;16.70;99.90;;;;;;5087013;28;20417;-72
2023/09/14 04:18:20;;;;;;;29.47;18.37;;;16.70;99.90;;;;;;5086699;28;20471;-72
2023/09/14 04:20:50;;;;;;;33.40;18.70;;;16.70;99.90;;;;;;5087415;28;20443;-73
2023/09/14 04:23:16;;;;;;;26.20;17.80;;;16.70;99.90;;;;;;5087428;28;20335;-73
2023/09/14 04:25:44;;;;;;;31.30;18.93;;;16.60;99.90;;;;;;5069123;28;20802;-73
2023/09/14 04:28:21;;;;;;;30.80;18.90;;;16.70;99.90;;;;;;5087386;28;20470;-72
2023/09/14 04:30:49;;;;;;;31.37;18.43;;;16.70;99.90;;;;;;5087488;28;20420;-73
2023/09/14 04:33:16;;;;;;;33.53;19.77;;;16.60;99.90;;;;;;5087070;28;20443;-72
2023/09/14 04:35:42;;;;;;;32.40;20.83;;;16.70;99.90;;;;;;5087163;28;20887;-73
2023/09/14 04:38:09;;;;;;;41.37;20.13;;;16.60;99.90;;;;;;5070108;28;20475;-73
2023/09/14 04:40:37;;;;;;;29.00;17.00;;;16.70;99.90;;;;;;5090726;28;20416;-73
2023/09/14 04:43:03;;;;;;;32.63;19.37;;;16.60;99.90;;;;;;5090830;28;20517;-73
2023/09/14 04:45:28;;;;;;;34.07;18.67;;;16.60;99.90;;;;;;5072131;28;21215;-73
2023/09/14 04:47:54;;;;;;;28.20;18.60;;;16.60;99.90;;;;;;5072087;28;20695;-73
2023/09/14 04:50:19;;;;;;;32.17;20.40;;;16.70;99.90;;;;;;5090492;28;20193;-73
2023/09/14 04:52:45;;;;;;;35.50;19.20;;;16.60;99.90;;;;;;5071739;28;20250;-73
2023/09/14 04:55:11;;;;;;;34.10;19.10;;;16.60;99.90;;;;;;5072069;28;20188;-73
2023/09/14 04:57:36;;;;;;;28.90;18.63;;;16.60;99.90;;;;;;5072025;28;20984;-73
2023/09/14 05:00:04;;;;;;;30.47;19.87;;;16.60;99.90;;;;;;5071640;28;20183;-73
2023/09/14 05:02:30;;;;;;;30.80;19.03;;;16.60;99.90;;;;;;5072275;28;20185;-72
2023/09/14 05:04:55;;;;;;;30.80;18.10;;;16.60;99.90;;;;;;5071684;28;20437;-73
2023/09/14 05:07:21;;;;;;;25.83;17.60;;;16.50;99.90;;;;;;5090215;28;20185;-73
2023/09/14 05:09:47;;;;;;;25.60;18.90;;;16.60;99.90;;;;;;5090617;28;20398;-73
2023/09/14 05:12:13;;;;;;;22.93;16.87;;;16.60;99.90;;;;;;5071497;28;20187;-74
2023/09/14 05:14:39;;;;;;;29.17;18.40;;;16.70;99.90;;;;;;5090013;28;20220;-73
2023/09/14 05:17:05;;;;;;;21.80;16.63;;;16.70;99.90;;;;;;5090174;28;20983;-73
2023/09/14 05:19:30;;;;;;;27.17;18.00;;;16.70;99.90;;;;;;5090166;28;20196;-73
2023/09/14 05:21:56;;;;;;;26.73;16.63;;;16.60;99.90;;;;;;5071488;28;20347;-73
2023/09/14 05:24:21;;;;;;;28.40;17.20;;;16.60;99.90;;;;;;5071156;28;20212;-73
2023/09/14 05:26:50;;;;;;;28.27;17.50;;;16.60;99.90;;;;;;5071605;28;20496;-73
2023/09/14 05:29:15;;;;;;;26.90;15.67;;;16.60;99.90;;;;;;5089925;28;20188;-73
2023/09/14 05:31:41;;;;;;;27.17;17.10;;;16.60;99.90;;;;;;5090401;28;20420;-73
2023/09/14 05:34:07;;;;;;;24.20;16.10;;;16.50;99.90;;;;;;5072166;28;20268;-73
2023/09/14 05:36:32;;;;;;;26.03;15.43;;;16.60;99.90;;;;;;5072212;28;20548;-73
2023/09/14 05:38:58;;;;;;;25.97;15.60;;;16.60;99.90;;;;;;5072369;28;20205;-73
2023/09/14 05:41:23;;;;;;;22.10;15.40;;;16.70;99.90;;;;;;5055115;28;20198;-72
2023/09/14 05:43:49;;;;;;;26.23;15.73;;;16.70;99.90;;;;;;5038393;28;20213;-72
2023/09/14 05:46:15;;;;;;;19.93;14.17;;;16.70;99.90;;;;;;5071403;28;20193;-73
2023/09/14 05:48:40;;;;;;;20.97;15.40;;;16.70;99.90;;;;;;5071273;28;20189;-72
2023/09/14 05:51:06;;;;;;;23.77;15.70;;;16.70;99.90;;;;;;5088551;28;20206;-72
2023/09/14 05:53:31;;;;;;;28.40;15.43;;;16.70;99.90;;;;;;5071095;28;20293;-72
2023/09/14 05:55:57;;;;;;;25.27;14.83;;;16.80;99.90;;;;;;5089446;28;20198;-73
2023/09/14 05:58:23;;;;;;;22.50;15.40;;;16.80;99.90;;;;;;5070985;28;20240;-73
2023/09/14 06:00:48;;;;;;;23.23;14.90;;;16.80;99.90;;;;;;5089259;28;20193;-72
2023/09/14 06:03:14;;;;;;;23.90;15.17;;;16.80;99.90;;;;;;5089092;28;20202;-72
2023/09/14 06:05:40;;;;;;;19.07;14.60;;;16.80;99.90;;;;;;5089246;28;20859;-73
2023/09/14 06:08:05;;;;;;;23.57;16.30;;;16.80;99.90;;;;;;5070882;28;20203;-72
2023/09/14 06:10:31;;;;;;;21.83;15.77;;;16.80;99.90;;;;;;5070807;28;20243;-72
2023/09/14 06:12:56;;;;;;;22.13;15.80;;;16.80;99.90;;;;;;5070394;28;20304;-73
2023/09/14 06:15:23;;;;;;;24.43;16.87;;;16.70;99.90;;;;;;5089028;28;20597;-72
2023/09/14 06:17:49;;;;;;;21.00;15.07;;;16.70;99.90;;;;;;5070243;28;20805;-73
2023/09/14 06:20:15;;;;;;;21.13;14.80;;;16.90;99.90;;;;;;5088927;28;20411;-72
2023/09/14 06:22:40;;;;;;;23.93;16.03;;;16.80;99.90;;;;;;5088812;28;20423;-72
2023/09/14 06:25:06;;;;;;;27.57;16.33;;;16.80;99.90;;;;;;5088979;28;20677;-73
2023/09/14 06:27:32;;;;;;;23.03;15.70;;;16.80;99.90;;;;;;5088778;28;20192;-73
2023/09/14 06:29:57;;;;;;;21.93;15.47;;;16.80;99.90;;;;;;5088725;28;20564;-72
2023/09/14 06:32:23;;;;;;;27.70;16.93;;;16.80;99.90;;;;;;5070593;28;20194;-73
2023/09/14 06:34:49;;;;;;;25.90;16.47;;;16.80;99.90;;;;;;5088771;28;20320;-72
2023/09/14 06:37:15;;;;;;;24.93;17.17;;;16.80;99.90;;;;;;5088866;28;20493;-72
2023/09/14 06:39:40;;;;;;;31.50;17.40;;;16.80;99.90;;;;;;5088898;28;20263;-72
2023/09/14 06:42:06;;;;;;;23.07;16.37;;;16.80;99.90;;;;;;5088943;28;20179;-73
2023/09/14 06:44:32;;;;;;;23.20;15.60;;;16.80;99.90;;;;;;5070633;28;20285;-73
2023/09/14 06:46:57;;;;;;;25.40;15.27;;;16.90;99.90;;;;;;5089104;28;20990;-72
2023/09/14 06:49:23;;;;;;;25.60;16.47;;;16.90;99.90;;;;;;5070654;28;20192;-73
2023/09/14 06:51:49;;;;;;;25.77;16.37;;;16.70;99.90;;;;;;5070751;28;20206;-72
2023/09/14 06:54:14;;;;;;;31.60;17.23;;;16.90;99.90;;;;;;5088728;28;20703;-72
2023/09/14 06:56:40;;;;;;;24.93;17.17;;;16.90;99.90;;;;;;5088572;28;20196;-72
2023/09/14 06:59:06;;;;;;;23.43;16.03;;;17.00;99.90;;;;;;5088299;28;20192;-72
2023/09/14 07:01:31;;;;;;;22.93;16.90;;;17.00;99.90;;;;;;5087104;28;20418;-72
2023/09/14 07:03:57;;;;;;;22.70;16.90;;;17.00;99.90;;;;;;5087851;28;20572;-72
2023/09/14 07:06:23;;;;;;;24.97;16.20;;;17.00;99.90;;;;;;5069985;28;20258;-72
2023/09/14 07:08:49;;;;;;;29.80;15.43;;;17.00;99.90;;;;;;5052712;28;20233;-73
2023/09/14 07:11:14;;;;;;;24.87;17.00;;;17.00;99.90;;;;;;5052552;28;20197;-71
2023/09/14 07:13:40;;;;;;;22.33;16.57;;;17.00;99.90;;;;;;5069302;28;20462;-72
2023/09/14 07:16:06;;;;;;;25.03;15.40;;;17.10;99.90;;;;;;5087637;28;20644;-72
2023/09/14 07:18:35;;;;;;;25.90;16.70;;;17.10;99.90;;;;;;5087792;28;20210;-72
2023/09/14 07:21:02;;;;;;;19.53;14.90;;;17.10;99.90;;;;;;5087494;28;20182;-73
2023/09/14 07:23:28;;;;;;;21.97;15.60;;;17.10;99.90;;;;;;5087422;28;20439;-73
2023/09/14 07:25:54;;;;;;;21.20;15.23;;;17.10;99.90;;;;;;5087377;28;20419;-73
2023/09/14 07:28:21;;;;;;;22.07;15.23;;;17.20;99.90;;;;;;5035658;28;20425;-73
2023/09/14 07:30:48;;;;;;;20.33;15.00;;;17.20;99.90;;;;;;5087772;28;20231;-73
2023/09/14 07:33:15;;;;;;;28.73;17.40;;;17.20;99.90;;;;;;5068546;28;20961;-73
2023/09/14 07:35:41;;;;;;;22.70;15.70;;;17.20;99.90;;;;;;5069120;28;20424;-73
2023/09/14 07:38:12;;;;;;;23.27;16.20;;;17.20;99.90;;;;;;5086983;28;20470;-72
2023/09/14 07:40:38;;;;;;;25.70;16.10;;;17.30;99.90;;;;;;5087151;28;20597;-72
2023/09/14 07:43:04;;;;;;;21.40;14.80;;;17.30;99.90;;;;;;5087042;28;20519;-73
2023/09/14 07:45:33;;;;;;;24.60;15.77;;;17.30;99.90;;;;;;5068765;28;20425;-72
2023/09/14 07:48:00;;;;;;;21.67;14.80;;;17.40;99.90;;;;;;5087088;28;20864;-73
2023/09/14 07:50:25;;;;;;;20.43;15.93;;;17.40;99.90;;;;;;5087030;28;20426;-72
2023/09/14 07:52:51;;;;;;;21.23;14.90;;;17.40;99.90;;;;;;5052064;28;20879;-73
2023/09/14 07:55:16;;;;;;;21.27;14.70;;;17.50;99.90;;;;;;5087100;28;20175;-72
2023/09/14 07:57:42;;;;;;;19.83;14.10;;;17.50;99.90;;;;;;5068447;28;20725;-72
2023/09/14 08:00:08;;;;;;;19.63;14.93;;;17.50;99.90;;;;;;5068435;28;20193;-72
2023/09/14 08:02:34;;;;;;;27.97;16.70;;;17.50;99.90;;;;;;5086812;28;20854;-72
2023/09/14 08:04:59;;;;;;;22.33;15.63;;;17.50;99.90;;;;;;5086797;28;20452;-72
2023/09/14 08:07:27;;;;;;;22.73;15.47;;;17.60;99.90;;;;;;5068748;28;20192;-72
2023/09/14 08:09:52;;;;;;;28.70;14.87;;;17.70;99.90;;;;;;5068864;28;20180;-72
2023/09/14 08:12:18;;;;;;;27.20;15.80;;;17.80;99.90;;;;;;5068580;28;20423;-72
2023/09/14 08:14:43;;;;;;;17.40;13.70;;;17.90;99.90;;;;;;5091054;28;20293;-72
2023/09/14 08:17:11;;;;;;;21.50;14.90;;;17.90;99.90;;;;;;5090981;28;20208;-72
2023/09/14 08:19:36;;;;;;;23.73;15.47;;;18.10;99.90;;;;;;5090975;28;20186;-72
2023/09/14 08:22:03;;;;;;;21.07;15.70;;;18.10;99.90;;;;;;5090891;28;20417;-73
2023/09/14 08:24:29;;;;;;;24.93;15.70;;;18.20;99.90;;;;;;5072735;28;20328;-72
2023/09/14 08:26:55;;;;;;;19.50;14.50;;;18.30;99.90;;;;;;5090889;28;20951;-72
2023/09/14 08:29:21;;;;;;;17.50;12.77;;;18.20;99.90;;;;;;5090803;28;20420;-72
2023/09/14 08:31:49;;;;;;;18.80;13.97;;;18.30;99.90;;;;;;5072529;28;20180;-72
2023/09/14 08:34:15;;;;;;;19.30;13.40;;;18.40;99.90;;;;;;5090719;28;20266;-72
2023/09/14 08:36:41;;;;;;;16.77;12.27;;;18.50;99.90;;;;;;5090827;28;20928;-72
2023/09/14 08:39:06;;;;;;;16.13;11.37;;;18.50;99.90;;;;;;5072424;28;20305;-72
2023/09/14 08:41:37;;;;;;;16.57;12.07;;;18.50;99.90;;;;;;5090664;28;20175;-72
2023/09/14 08:44:07;;;;;;;14.20;12.10;;;18.60;99.90;;;;;;5072229;28;20205;-72
2023/09/14 08:46:34;;;;;;;18.23;12.43;;;18.70;99.90;;;;;;5090516;28;20418;-72
2023/09/14 08:49:01;;;;;;;19.07;12.57;;;18.70;99.90;;;;;;5072214;28;20420;-72
2023/09/14 08:51:29;;;;;;;18.60;13.10;;;18.70;99.90;;;;;;5055371;28;20497;-72
2023/09/14 08:53:55;;;;;;;17.27;13.10;;;18.80;99.90;;;;;;5090220;28;20452;-72
2023/09/14 08:56:22;;;;;;;23.43;14.17;;;19.00;99.90;;;;;;5090273;28;20434;-72
2023/09/14 08:58:50;;;;;;;18.80;13.13;;;19.00;99.90;;;;;;5071705;28;20478;-72
2023/09/14 09:01:19;;;;;;;24.60;14.30;;;19.10;99.90;;;;;;5090344;28;20417;-72
2023/09/14 09:03:44;;;;;;;16.03;12.23;;;19.20;99.90;;;;;;5090412;28;20502;-72
2023/09/14 09:06:11;;;;;;;15.87;12.97;;;19.30;99.90;;;;;;5090392;28;20913;-72
2023/09/14 09:08:37;;;;;;;19.10;13.30;;;19.50;99.90;;;;;;5090431;28;20273;-72
2023/09/14 09:11:04;;;;;;;16.43;11.03;;;19.70;99.90;;;;;;5090371;28;20601;-72
2023/09/14 09:13:34;;;;;;;14.50;10.63;;;19.90;99.90;;;;;;5071758;28;20619;-72
2023/09/14 09:16:00;;;;;;;14.47;10.50;;;20.30;99.90;;;;;;5091111;28;20416;-73
2023/09/14 09:18:26;;;;;;;14.10;10.40;;;20.50;99.90;;;;;;5090651;28;20790;-73
2023/09/14 09:20:52;;;;;;;12.23;10.37;;;20.40;99.90;;;;;;5090369;28;20730;-73
2023/09/14 09:23:20;;;;;;;13.00;10.97;;;20.30;99.90;;;;;;5090402;28;20436;-72
2023/09/14 09:25:52;;;;;;;13.70;10.50;;;20.20;99.90;;;;;;5089128;28;20673;-73
2023/09/14 09:28:18;;;;;;;13.30;9.67;;;20.00;99.90;;;;;;5089916;28;20926;-73
2023/09/14 09:30:44;;;;;;;11.07;8.73;;;19.90;99.90;;;;;;5090137;28;20420;-73
2023/09/14 09:33:10;;;;;;;11.70;9.77;;;19.90;99.90;;;;;;5090017;28;20536;-73
2023/09/14 09:35:36;;;;;;;11.83;9.13;;;20.00;99.90;;;;;;5089905;28;20190;-73
2023/09/14 09:38:14;;;;;;;18.60;11.00;;;20.10;99.90;;;;;;5071537;28;20465;-73
2023/09/14 09:40:42;;;;;;;14.60;9.97;;;20.10;99.90;;;;;;5089541;28;20439;-73
2023/09/14 09:43:08;;;;;;;11.40;9.40;;;20.70;99.90;;;;;;5089544;28;20934;-73
2023/09/14 09:45:34;;;;;;;8.73;7.83;;;21.20;99.90;;;;;;5089843;28;20811;-73
2023/09/14 09:48:03;;;;;;;13.10;8.33;;;21.80;99.90;;;;;;5054162;28;20451;-73
2023/09/14 09:50:29;;;;;;;12.53;7.40;;;22.50;99.90;;;;;;5089664;28;20544;-73
2023/09/14 09:52:54;;;;;;;13.77;8.53;;;23.10;99.90;;;;;;5089729;28;20416;-73
2023/09/14 09:55:24;;;;;;;10.17;7.23;;;22.70;99.90;;;;;;5054302;28;20210;-73
2023/09/14 09:57:52;;;;;;;9.17;7.30;;;23.10;99.90;;;;;;5070664;28;20304;-73
2023/09/14 10:00:19;;;;;;;9.03;7.37;;;23.70;99.90;;;;;;5089114;28;20416;-73
2023/09/14 10:02:46;;;;;;;10.40;7.93;;;24.30;99.90;;;;;;5089069;28;20716;-73
2023/09/14 10:05:12;;;;;;;9.90;6.80;;;24.50;99.90;;;;;;5088988;28;20409;-73
2023/09/14 10:07:41;;;;;;;9.77;6.67;;;24.80;99.90;;;;;;5070595;28;20419;-73
2023/09/14 10:10:11;;;;;;;9.30;7.10;;;25.10;99.90;;;;;;5088786;28;20232;-73
2023/09/14 10:12:38;;;;;;;9.70;8.20;;;25.00;99.90;;;;;;5070683;28;20508;-73
2023/09/14 10:15:06;;;;;;;7.20;6.30;;;24.30;99.90;;;;;;5088891;28;20435;-73
2023/09/14 10:17:32;;;;;;;12.37;7.60;;;23.80;99.90;;;;;;5070354;28;20463;-73
2023/09/14 10:20:08;;;;;;;7.57;5.90;;;23.30;99.90;;;;;;5088747;28;20763;-73
2023/09/14 10:22:37;;;;;;;6.70;6.00;;;23.10;99.90;;;;;;5089158;28;20181;-73
2023/09/14 10:25:05;;;;;;;6.30;5.10;;;23.60;99.90;;;;;;5088445;28;20578;-73
2023/09/14 10:27:32;;;;;;;9.90;6.57;;;24.50;99.90;;;;;;5070260;28;20433;-73
2023/09/14 10:29:59;;;;;;;9.60;6.67;;;24.90;99.90;;;;;;5070444;28;20421;-73
2023/09/14 10:32:25;;;;;;;10.23;6.17;;;24.70;99.90;;;;;;5088383;28;20426;-73
2023/09/14 10:34:51;;;;;;;8.40;6.03;;;24.30;99.90;;;;;;5069657;28;20471;-73
2023/09/14 10:37:20;;;;;;;7.00;6.40;;;24.50;99.90;;;;;;5069420;28;20839;-73
2023/09/14 10:39:46;;;;;;;8.50;5.90;;;24.10;99.90;;;;;;5069791;28;20448;-73
2023/09/14 10:42:12;;;;;;;6.70;5.83;;;23.90;99.90;;;;;;5069618;28;20412;-73
2023/09/14 10:44:38;;;;;;;10.13;5.60;;;24.30;99.90;;;;;;5069734;28;20856;-75
2023/09/14 10:47:05;;;;;;;9.67;4.80;;;24.70;99.90;;;;;;5088160;28;20421;-72
2023/09/14 10:49:35;;;;;;;7.43;5.20;;;25.20;99.90;;;;;;5088098;28;20657;-72
2023/09/14 10:52:01;;;;;;;8.10;5.10;;;25.20;99.90;;;;;;5088040;28;20763;-71
2023/09/14 10:54:31;;;;;;;8.03;6.23;;;25.80;99.90;;;;;;5087962;28;20461;-73
2023/09/14 10:57:00;;;;;;;6.27;5.20;;;26.10;99.90;;;;;;5088017;28;20419;-73
2023/09/14 10:59:51;;;;;;;9.37;6.43;;;26.30;99.90;;;;;;5088043;28;20769;-72
2023/09/14 11:02:43;;;;;;;6.60;6.00;;;26.40;99.90;;;;;;5088063;28;20415;-72
2023/09/14 11:05:25;;;;;;;7.23;5.67;;;26.80;99.70;;;;;;5069810;28;20469;-71
2023/09/14 11:07:55;;;;;;;6.70;5.57;;;27.00;97.40;;;;;;5088376;28;20456;-71
2023/09/14 11:10:22;;;;;;;8.33;5.57;;;27.00;98.60;;;;;;5087958;28;20420;-70
2023/09/14 11:12:49;;;;;;;6.83;4.53;;;27.20;95.90;;;;;;5087940;28;20421;-71
2023/09/14 11:15:22;;;;;;;6.40;4.70;;;27.00;94.50;;;;;;5088296;28;20504;-71
2023/09/14 11:17:56;;;;;;;5.97;4.67;;;27.00;94.50;;;;;;5088088;28;20471;-71
2023/09/14 11:20:22;;;;;;;5.77;4.30;;;26.80;93.90;;;;;;5088221;28;20408;-71
2023/09/14 11:22:49;;;;;;;5.47;4.97;;;26.80;93.40;;;;;;5069599;28;21006;-71
2023/09/14 11:25:32;;;;;;;7.30;6.60;;;26.80;94.60;;;;;;5070435;28;20193;-70
2023/09/14 11:27:58;;;;;;;8.73;5.40;;;26.80;96.00;;;;;;5069975;28;20424;-70
2023/09/14 11:30:24;;;;;;;14.93;5.27;;;27.10;93.50;;;;;;5088088;28;20432;-70
2023/09/14 11:32:54;;;;;;;9.43;5.70;;;27.30;93.80;;;;;;5088051;28;20275;-70
2023/09/14 11:35:39;;;;;;;6.00;5.03;;;27.20;93.30;;;;;;5088220;28;20459;-70
2023/09/14 11:38:14;;;;;;;6.20;4.90;;;26.80;94.10;;;;;;5087853;28;20497;-70
2023/09/14 11:40:41;;;;;;;5.17;4.63;;;26.20;95.50;;;;;;5087672;28;20424;-70
2023/09/14 11:43:07;;;;;;;6.80;5.07;;;26.40;95.20;;;;;;5052443;28;20451;-69
2023/09/14 11:45:39;;;;;;;5.53;4.83;;;26.40;95.90;;;;;;5087209;28;20409;-70
2023/09/14 11:48:06;;;;;;;9.07;5.37;;;26.60;94.00;;;;;;5086634;28;20273;-70
2023/09/14 11:50:33;;;;;;;5.43;4.93;;;26.60;93.90;;;;;;5086881;28;21020;-70
2023/09/14 11:52:59;;;;;;;5.40;4.50;;;26.40;93.70;;;;;;5087021;28;20423;-70
2023/09/14 11:55:28;;;;;;;4.53;4.13;;;26.30;94.00;;;;;;5087302;28;20411;-70
2023/09/14 11:57:56;;;;;;;6.83;4.70;;;26.40;95.30;;;;;;5086989;28;20474;-69
2023/09/14 12:00:23;;;;;;;6.47;4.27;;;26.40;94.60;;;;;;5086988;28;20417;-70
2023/09/14 12:02:49;;;;;;;14.33;4.00;;;26.40;94.30;;;;;;5086968;28;20902;-69
2023/09/14 12:05:15;;;;;;;7.43;4.53;;;26.30;93.70;;;;;;5086952;28;20457;-70
2023/09/14 12:07:41;;;;;;;5.90;5.30;;;26.10;94.80;;;;;;5068954;28;20193;-70
2023/09/14 12:10:23;;;;;;;6.77;5.27;;;26.40;95.90;;;;;;5086923;28;20931;-70
2023/09/14 12:12:49;;;;;;;5.77;4.87;;;26.60;94.40;;;;;;5086832;28;20180;-70
2023/09/14 12:15:19;;;;;;;5.70;5.10;;;26.40;94.20;;;;;;5087226;28;20423;-70
2023/09/14 12:17:50;;;;;;;5.70;4.33;;;26.40;94.30;;;;;;5087618;28;20234;-70
2023/09/14 12:20:16;;;;;;;9.03;4.80;;;26.40;93.90;;;;;;5087154;28;20472;-70
2023/09/14 12:22:42;;;;;;;5.53;4.80;;;26.40;93.40;;;;;;5052053;28;20516;-70
2023/09/14 12:25:09;;;;;;;4.43;4.07;;;26.40;93.60;;;;;;5087022;28;20461;-70
2023/09/14 12:27:36;;;;;;;7.93;5.60;;;26.20;94.30;;;;;;5086803;28;20439;-70
2023/09/14 12:30:07;;;;;;;4.40;4.00;;;26.30;93.80;;;;;;5086773;28;20910;-71
2023/09/14 12:32:35;;;;;;;4.30;3.90;;;26.30;93.30;;;;;;5086794;28;20535;-70